| time (UTC) | temp F | wind direction | speed MPH | gust MPH | rain 1hr in | rain 24hr in | rain mn in | humidity % | barometer mb |
| 20260904022701 | 83 | 161 | 3.0 | 3.0 | 0.00 | 0.00 | 0.00 | 58 | 1013.2 |
| 20260904022158 | 83 | 187 | 0.0 | 1.0 | 0.00 | 0.00 | 0.00 | 58 | 1013.0 |
| 20260904021654 | 83 | 187 | 1.0 | 1.0 | 0.00 | 0.00 | 0.00 | 58 | 1013.2 |
| 20260904021148 | 83 | 192 | 3.0 | 5.0 | 0.00 | 0.00 | 0.00 | 57 | 1012.9 |
| 20260904020645 | 83 | 185 | 5.0 | 6.0 | 0.00 | 0.00 | 0.00 | 57 | 1012.7 |
| 20260904020139 | 83 | 221 | 5.0 | 5.0 | 0.00 | 0.00 | 0.00 | 58 | 1012.5 |
| 20260904015638 | 83 | 233 | 10.0 | 13.0 | 0.00 | 0.00 | 0.00 | 58 | 1012.9 |
| 20260904015137 | 83 | 198 | 7.0 | 7.0 | 0.00 | 0.00 | 0.00 | 59 | 1012.5 |
| 20260904014636 | 83 | 211 | 9.0 | 10.0 | 0.00 | 0.00 | 0.00 | 59 | 1012.4 |
| 20260904014131 | 83 | 243 | 11.0 | 11.0 | 0.00 | 0.00 | 0.00 | 59 | 1012.5 |
| 20260904013629 | 84 | 244 | 7.0 | 8.0 | 0.00 | 0.00 | 0.00 | 58 | 1012.2 |
| 20260904013124 | 84 | 213 | 7.0 | 8.0 | 0.00 | 0.00 | 0.00 | 58 | 1012.5 |
| 20260904012620 | 84 | 218 | 9.0 | 11.0 | 0.00 | 0.00 | 0.00 | 57 | 1012.3 |
| 20260904012119 | 84 | 236 | 11.0 | 11.0 | 0.00 | 0.00 | 0.00 | 58 | 1012.0 |
| 20260904011618 | 84 | 197 | 7.0 | 9.0 | 0.00 | 0.00 | 0.00 | 59 | 1012.2 |
| 20260904011114 | 84 | 216 | 14.0 | 16.0 | 0.00 | 0.00 | 0.00 | 58 | 1012.3 |
| 20260904010609 | 84 | 201 | 10.0 | 11.0 | 0.00 | 0.00 | 0.00 | 59 | 1012.0 |
| 20260904010106 | 84 | 204 | 12.0 | 13.0 | 0.00 | 0.00 | 0.00 | 59 | 1012.1 |
| 20260904005600 | 85 | 219 | 13.0 | 14.0 | 0.00 | 0.00 | 0.00 | 58 | 1012.2 |
| 20260904005055 | 86 | 213 | 9.0 | 10.0 | 0.00 | 0.00 | 0.00 | 55 | 1012.4 |
| 20260904004551 | 86 | 218 | 11.0 | 13.0 | 0.00 | 0.00 | 0.00 | 53 | 1012.2 |
| 20260904004046 | 86 | 234 | 11.0 | 13.0 | 0.00 | 0.00 | 0.00 | 54 | 1012.4 |
| 20260904003542 | 86 | 228 | 10.0 | 11.0 | 0.00 | 0.00 | 0.00 | 55 | 1012.2 |
| 20260904003037 | 86 | 205 | 14.0 | 15.0 | 0.00 | 0.00 | 0.00 | 56 | 1012.0 |
| 20260904002533 | 87 | 217 | 8.0 | 10.0 | 0.00 | 0.00 | 0.00 | 53 | 1012.2 |
| 20260904002032 | 88 | 237 | 9.0 | 11.0 | 0.00 | 0.00 | 0.00 | 51 | 1012.1 |
| 20260904001528 | 88 | 211 | 9.0 | 9.0 | 0.00 | 0.00 | 0.00 | 49 | 1012.0 |
| 20260904001027 | 88 | 229 | 9.0 | 10.0 | 0.00 | 0.00 | 0.00 | 49 | 1012.0 |
| 20260904000527 | 88 | 195 | 7.0 | 7.0 | 0.00 | 0.00 | 0.00 | 51 | 1012.0 |
| 20260904000023 | 88 | 250 | 9.0 | 10.0 | 0.00 | 0.00 | 0.00 | 51 | 1012.2 |
| 20260903235518 | 87 | 249 | 9.0 | 11.0 | 0.00 | 0.00 | 0.00 | 52 | 1012.2 |
| 20260903235014 | 87 | 209 | 11.0 | 14.0 | 0.00 | 0.00 | 0.00 | 53 | 1012.3 |
| 20260903234509 | 87 | 228 | 7.0 | 7.0 | 0.00 | 0.00 | 0.00 | 54 | 1012.3 |
| 20260903234004 | 87 | 264 | 9.0 | 9.0 | 0.00 | 0.00 | 0.00 | 54 | 1012.1 |
| 20260903233501 | 87 | 228 | 12.0 | 15.0 | 0.00 | 0.00 | 0.00 | 54 | 1012.2 |
| 20260903232955 | 88 | 245 | 10.0 | 14.0 | 0.00 | 0.00 | 0.00 | 53 | 1012.1 |
| 20260903232450 | 89 | 188 | 5.0 | 8.0 | 0.00 | 0.00 | 0.00 | 48 | 1012.0 |
| 20260903231944 | 89 | 245 | 8.0 | 9.0 | 0.00 | 0.00 | 0.00 | 46 | 1012.0 |
| 20260903231440 | 89 | 252 | 4.0 | 5.0 | 0.00 | 0.00 | 0.00 | 46 | 1012.0 |
| 20260903230934 | 89 | 176 | 4.0 | 6.0 | 0.00 | 0.00 | 0.00 | 47 | 1012.0 |
| 20260903230430 | 89 | 227 | 6.0 | 8.0 | 0.00 | 0.00 | 0.00 | 46 | 1012.0 |
| 20260903225926 | 89 | 272 | 3.0 | 3.0 | 0.00 | 0.00 | 0.00 | 46 | 1012.1 |
| 20260903225421 | 89 | 248 | 8.0 | 9.0 | 0.00 | 0.00 | 0.00 | 47 | 1011.9 |
| 20260903224918 | 89 | 290 | 4.0 | 5.0 | 0.00 | 0.00 | 0.00 | 47 | 1012.2 |
| 20260903224414 | 89 | 268 | 7.0 | 8.0 | 0.00 | 0.00 | 0.00 | 47 | 1012.0 |
| 20260903223910 | 89 | 264 | 3.0 | 3.0 | 0.00 | 0.00 | 0.00 | 47 | 1012.1 |
| 20260903223408 | 89 | 218 | 0.0 | 1.0 | 0.00 | 0.00 | 0.00 | 46 | 1011.9 |
| 20260903222908 | 89 | 296 | 6.0 | 7.0 | 0.00 | 0.00 | 0.00 | 46 | 1011.9 |
| 20260903222403 | 90 | 239 | 2.0 | 2.0 | 0.00 | 0.00 | 0.00 | 46 | 1012.0 |
| 20260903221857 | 90 | 231 | 4.0 | 5.0 | 0.00 | 0.00 | 0.00 | 45 | 1012.0 |
| 20260903221356 | 89 | 244 | 7.0 | 9.0 | 0.00 | 0.00 | 0.00 | 45 | 1012.2 |
| 20260903220854 | 90 | 226 | 3.0 | 3.0 | 0.00 | 0.00 | 0.00 | 45 | 1012.1 |
| 20260903220349 | 90 | 243 | 2.0 | 2.0 | 0.00 | 0.00 | 0.00 | 45 | 1012.3 |
| 20260903215847 | 90 | 230 | 5.0 | 6.0 | 0.00 | 0.00 | 0.00 | 47 | 1012.2 |
| 20260903215344 | 90 | 265 | 6.0 | 7.0 | 0.00 | 0.00 | 0.00 | 46 | 1012.4 |
| 20260903214842 | 90 | 280 | 4.0 | 6.0 | 0.00 | 0.00 | 0.00 | 46 | 1012.4 |
| 20260903214338 | 90 | 280 | 4.0 | 5.0 | 0.00 | 0.00 | 0.00 | 47 | 1012.5 |
| 20260903213837 | 90 | 195 | 6.0 | 7.0 | 0.00 | 0.00 | 0.00 | 45 | 1012.7 |
| 20260903213332 | 91 | 202 | 7.0 | 8.0 | 0.00 | 0.00 | 0.00 | 44 | 1012.7 |
| 20260903212829 | 90 | 13 | 3.0 | 3.0 | 0.00 | 0.00 | 0.00 | 46 | 1012.3 |
| 20260903212325 | 93 | 243 | 3.0 | 3.0 | 0.00 | 0.00 | 0.00 | 44 | 1012.8 |
| 20260903211824 | 92 | 194 | 1.0 | 1.0 | 0.00 | 0.00 | 0.00 | 44 | 1012.9 |
| 20260903211320 | 91 | 245 | 3.0 | 3.0 | 0.00 | 0.00 | 0.00 | 46 | 1012.9 |
| 20260903210816 | 90 | 217 | 1.0 | 1.0 | 0.00 | 0.00 | 0.00 | 45 | 1012.9 |
| 20260903210311 | 91 | 186 | 5.0 | 6.0 | 0.00 | 0.00 | 0.00 | 45 | 1013.1 |
| 20260903205810 | 91 | 249 | 3.0 | 3.0 | 0.00 | 0.00 | 0.00 | 45 | 1013.0 |
| 20260903205310 | 90 | 324 | 1.0 | 1.0 | 0.00 | 0.00 | 0.00 | 45 | 1013.2 |
| 20260903204805 | 91 | 205 | 5.0 | 7.0 | 0.00 | 0.00 | 0.00 | 47 | 1013.4 |
| 20260903204302 | 90 | 180 | 2.0 | 3.0 | 0.00 | 0.00 | 0.00 | 45 | 1013.2 |
| 20260903203757 | 90 | 208 | 1.0 | 2.0 | 0.00 | 0.00 | 0.00 | 46 | 1013.4 |
| 20260903203253 | 90 | 211 | 2.0 | 2.0 | 0.00 | 0.00 | 0.00 | 45 | 1013.4 |
| 20260903202751 | 89 | 169 | 5.0 | 6.0 | 0.00 | 0.00 | 0.00 | 46 | 1013.7 |
| 20260903202248 | 89 | 208 | 5.0 | 6.0 | 0.00 | 0.00 | 0.00 | 46 | 1013.3 |
| 20260903201747 | 89 | 257 | 3.0 | 3.0 | 0.00 | 0.00 | 0.00 | 49 | 1013.6 |
| 20260903201243 | 89 | 217 | 2.0 | 2.0 | 0.00 | 0.00 | 0.00 | 48 | 1013.8 |
| 20260903200741 | 88 | 257 | 1.0 | 1.0 | 0.00 | 0.00 | 0.00 | 51 | 1014.0 |
| 20260903200237 | 88 | 260 | 3.0 | 3.0 | 0.00 | 0.00 | 0.00 | 49 | 1014.0 |
| 20260903195732 | 88 | 285 | 5.0 | 5.0 | 0.00 | 0.00 | 0.00 | 48 | 1014.2 |
| 20260903195228 | 88 | 196 | 0.0 | 0.0 | 0.00 | 0.00 | 0.00 | 49 | 1014.2 |
| 20260903194728 | 87 | 238 | 2.0 | 2.0 | 0.00 | 0.00 | 0.00 | 53 | 1014.2 |
| 20260903194224 | 87 | 291 | 3.0 | 3.0 | 0.00 | 0.00 | 0.00 | 50 | 1014.2 |
| 20260903193719 | 88 | 225 | 6.0 | 6.0 | 0.00 | 0.00 | 0.00 | 52 | 1014.4 |
| 20260903193214 | 87 | 278 | 3.0 | 5.0 | 0.00 | 0.00 | 0.00 | 53 | 1014.6 |
| 20260903192710 | 88 | 247 | 6.0 | 7.0 | 0.00 | 0.00 | 0.00 | 50 | 1014.5 |
| 20260903192206 | 87 | 230 | 2.0 | 2.0 | 0.00 | 0.00 | 0.00 | 51 | 1014.6 |
| 20260903191701 | 87 | 228 | 3.0 | 5.0 | 0.00 | 0.00 | 0.00 | 53 | 1014.5 |
| 20260903191156 | 86 | 198 | 4.0 | 5.0 | 0.00 | 0.00 | 0.00 | 53 | 1014.6 |
| 20260903190651 | 86 | 232 | 6.0 | 6.0 | 0.00 | 0.00 | 0.00 | 53 | 1014.8 |
| 20260903190151 | 86 | 262 | 7.0 | 8.0 | 0.00 | 0.00 | 0.00 | 52 | 1014.9 |
| 20260903185646 | 86 | 198 | 7.0 | 8.0 | 0.00 | 0.00 | 0.00 | 52 | 1015.1 |
| 20260903185141 | 86 | 223 | 4.0 | 5.0 | 0.00 | 0.00 | 0.00 | 52 | 1015.1 |
| 20260903184638 | 86 | 287 | 6.0 | 8.0 | 0.00 | 0.00 | 0.00 | 53 | 1015.3 |
| 20260903184133 | 86 | 230 | 4.0 | 5.0 | 0.00 | 0.00 | 0.00 | 54 | 1015.1 |
| 20260903183631 | 85 | 242 | 6.0 | 7.0 | 0.00 | 0.00 | 0.00 | 54 | 1015.4 |
| 20260903183127 | 85 | 274 | 5.0 | 6.0 | 0.00 | 0.00 | 0.00 | 54 | 1015.3 |
| 20260903182626 | 85 | 233 | 5.0 | 6.0 | 0.00 | 0.00 | 0.00 | 54 | 1015.6 |
| 20260903182122 | 84 | 210 | 7.0 | 8.0 | 0.00 | 0.00 | 0.00 | 55 | 1015.5 |
| 20260903181620 | 84 | 211 | 2.0 | 2.0 | 0.00 | 0.00 | 0.00 | 54 | 1015.7 |
| 20260903181115 | 84 | 221 | 5.0 | 6.0 | 0.00 | 0.00 | 0.00 | 54 | 1015.9 |
| 20260903180610 | 84 | 209 | 5.0 | 6.0 | 0.00 | 0.00 | 0.00 | 53 | 1015.9 |
| 20260903180105 | 84 | 230 | 6.0 | 6.0 | 0.00 | 0.00 | 0.00 | 54 | 1015.9 |
| 20260903175604 | 84 | 209 | 3.0 | 3.0 | 0.00 | 0.00 | 0.00 | 56 | 1016.0 |
| 20260903175103 | 84 | 230 | 3.0 | 3.0 | 0.00 | 0.00 | 0.00 | 56 | 1016.0 |
| 20260903174558 | 84 | 203 | 4.0 | 6.0 | 0.00 | 0.00 | 0.00 | 57 | 1016.1 |
| 20260903174053 | 84 | 234 | 5.0 | 6.0 | 0.00 | 0.00 | 0.00 | 57 | 1015.8 |
| 20260903173548 | 84 | 232 | 2.0 | 2.0 | 0.00 | 0.00 | 0.00 | 57 | 1015.9 |
| 20260903173044 | 84 | 219 | 6.0 | 7.0 | 0.00 | 0.00 | 0.00 | 56 | 1016.2 |
| 20260903172538 | 84 | 194 | 5.0 | 6.0 | 0.00 | 0.00 | 0.00 | 56 | 1016.1 |
| 20260903172034 | 85 | 196 | 4.0 | 5.0 | 0.00 | 0.00 | 0.00 | 55 | 1016.2 |
| 20260903171529 | 85 | 254 | 2.0 | 2.0 | 0.00 | 0.00 | 0.00 | 55 | 1016.0 |
| 20260903171025 | 84 | 129 | 0.0 | 1.0 | 0.00 | 0.00 | 0.00 | 55 | 1016.1 |
| 20260903170523 | 84 | 229 | 1.0 | 2.0 | 0.00 | 0.00 | 0.00 | 56 | 1016.2 |
| 20260903170020 | 83 | 179 | 2.0 | 3.0 | 0.00 | 0.00 | 0.00 | 58 | 1016.2 |
| 20260903165517 | 83 | 177 | 2.0 | 3.0 | 0.00 | 0.00 | 0.00 | 59 | 1016.3 |
| 20260903165013 | 83 | 221 | 3.0 | 3.0 | 0.00 | 0.00 | 0.00 | 59 | 1016.2 |
| 20260903164513 | 84 | 135 | 2.0 | 3.0 | 0.00 | 0.00 | 0.00 | 58 | 1016.1 |
| 20260903164008 | 83 | 189 | 1.0 | 1.0 | 0.00 | 0.00 | 0.00 | 60 | 1016.1 |
| 20260903163503 | 83 | 189 | 2.0 | 2.0 | 0.00 | 0.00 | 0.00 | 60 | 1016.2 |
| 20260903162959 | 82 | 169 | 3.0 | 3.0 | 0.00 | 0.00 | 0.00 | 61 | 1016.0 |
| 20260903162455 | 82 | 222 | 2.0 | 2.0 | 0.00 | 0.00 | 0.00 | 61 | 1016.1 |
| 20260903161950 | 82 | 179 | 0.0 | 0.0 | 0.00 | 0.00 | 0.00 | 61 | 1016.2 |
| 20260903161446 | 82 | 180 | 1.0 | 1.0 | 0.00 | 0.00 | 0.00 | 62 | 1016.1 |
| 20260903160942 | 81 | 201 | 1.0 | 2.0 | 0.00 | 0.00 | 0.00 | 62 | 1016.2 |
| 20260903160440 | 81 | 224 | 4.0 | 5.0 | 0.00 | 0.00 | 0.00 | 64 | 1016.3 |
| 20260903155939 | 81 | 208 | 4.0 | 5.0 | 0.00 | 0.00 | 0.00 | 64 | 1016.1 |
| 20260903155439 | 81 | 211 | 1.0 | 1.0 | 0.00 | 0.00 | 0.00 | 64 | 1016.2 |
| 20260903154936 | 80 | 221 | 3.0 | 3.0 | 0.00 | 0.00 | 0.00 | 64 | 1016.3 |
| 20260903154431 | 81 | 221 | 3.0 | 5.0 | 0.00 | 0.00 | 0.00 | 64 | 1016.0 |
| 20260903153927 | 80 | 211 | 5.0 | 5.0 | 0.00 | 0.00 | 0.00 | 64 | 1016.1 |
| 20260903153422 | 80 | 210 | 4.0 | 5.0 | 0.00 | 0.00 | 0.00 | 64 | 1016.4 |
| 20260903152918 | 80 | 217 | 3.0 | 3.0 | 0.00 | 0.00 | 0.00 | 65 | 1016.2 |
| 20260903152415 | 80 | 189 | 4.0 | 5.0 | 0.00 | 0.00 | 0.00 | 65 | 1016.3 |
| 20260903151915 | 80 | 191 | 3.0 | 5.0 | 0.00 | 0.00 | 0.00 | 65 | 1016.3 |
| 20260903151409 | 80 | 201 | 1.0 | 2.0 | 0.00 | 0.00 | 0.00 | 63 | 1016.3 |
| 20260903150904 | 80 | 211 | 3.0 | 3.0 | 0.00 | 0.00 | 0.00 | 64 | 1016.4 |
| 20260903150359 | 80 | 203 | 3.0 | 5.0 | 0.00 | 0.00 | 0.00 | 65 | 1016.2 |
| 20260903145854 | 80 | 187 | 2.0 | 2.0 | 0.00 | 0.00 | 0.00 | 65 | 1016.2 |
| 20260903145349 | 80 | 191 | 1.0 | 1.0 | 0.00 | 0.00 | 0.00 | 67 | 1016.2 |
| 20260903144848 | 79 | 206 | 1.0 | 2.0 | 0.00 | 0.00 | 0.00 | 67 | 1016.2 |
| 20260903144343 | 79 | 191 | 1.0 | 2.0 | 0.00 | 0.00 | 0.00 | 68 | 1016.2 |
| 20260903143839 | 79 | 195 | 3.0 | 3.0 | 0.00 | 0.00 | 0.00 | 69 | 1016.2 |
| 20260903143336 | 79 | 210 | 2.0 | 2.0 | 0.00 | 0.00 | 0.00 | 69 | 1016.1 |
| 20260903142831 | 79 | 196 | 1.0 | 2.0 | 0.00 | 0.00 | 0.00 | 69 | 1016.2 |
| 20260903142327 | 79 | 190 | 1.0 | 1.0 | 0.00 | 0.00 | 0.00 | 69 | 1016.2 |
| 20260903141822 | 78 | 186 | 0.0 | 0.0 | 0.00 | 0.00 | 0.00 | 70 | 1016.3 |
| 20260903141318 | 78 | 187 | 1.0 | 1.0 | 0.00 | 0.00 | 0.00 | 71 | 1016.4 |
| 20260903140818 | 78 | 195 | 2.0 | 2.0 | 0.00 | 0.00 | 0.00 | 71 | 1016.1 |
| 20260903140313 | 78 | 169 | 2.0 | 2.0 | 0.00 | 0.00 | 0.00 | 71 | 1016.4 |
| 20260903135809 | 78 | 199 | 0.0 | 1.0 | 0.00 | 0.00 | 0.00 | 71 | 1016.1 |
| 20260903135306 | 78 | 199 | 1.0 | 1.0 | 0.00 | 0.00 | 0.00 | 71 | 1016.3 |
| 20260903134803 | 78 | 197 | 1.0 | 2.0 | 0.00 | 0.00 | 0.00 | 71 | 1015.8 |
| 20260903134259 | 78 | 211 | 1.0 | 1.0 | 0.00 | 0.00 | 0.00 | 71 | 1016.0 |
| 20260903133756 | 78 | 226 | 1.0 | 1.0 | 0.00 | 0.00 | 0.00 | 71 | 1016.0 |
| 20260903133253 | 78 | 178 | 3.0 | 3.0 | 0.00 | 0.00 | 0.00 | 71 | 1015.9 |
| 20260903132752 | 78 | 213 | 2.0 | 2.0 | 0.00 | 0.00 | 0.00 | 70 | 1015.9 |
| 20260903132248 | 78 | 190 | 3.0 | 3.0 | 0.00 | 0.00 | 0.00 | 70 | 1015.7 |
| 20260903131743 | 78 | 197 | 3.0 | 3.0 | 0.00 | 0.00 | 0.00 | 71 | 1015.7 |
| 20260903131242 | 78 | 197 | 2.0 | 2.0 | 0.00 | 0.00 | 0.00 | 71 | 1015.5 |
| 20260903130737 | 78 | 231 | 2.0 | 2.0 | 0.00 | 0.00 | 0.00 | 70 | 1015.7 |
| 20260903130232 | 78 | 210 | 3.0 | 5.0 | 0.00 | 0.00 | 0.00 | 70 | 1015.6 |
| 20260903125730 | 78 | 215 | 5.0 | 6.0 | 0.00 | 0.00 | 0.00 | 69 | 1015.5 |
| 20260903125225 | 78 | 211 | 3.0 | 3.0 | 0.00 | 0.00 | 0.00 | 69 | 1015.5 |
| 20260903124725 | 78 | 203 | 3.0 | 6.0 | 0.00 | 0.00 | 0.00 | 69 | 1015.5 |
| 20260903124220 | 78 | 186 | 3.0 | 5.0 | 0.00 | 0.00 | 0.00 | 68 | 1015.1 |
| 20260903123719 | 78 | 198 | 1.0 | 2.0 | 0.00 | 0.00 | 0.00 | 68 | 1015.3 |
| 20260903123218 | 78 | 189 | 2.0 | 3.0 | 0.00 | 0.00 | 0.00 | 68 | 1015.3 |
| 20260903122717 | 78 | 198 | 2.0 | 2.0 | 0.00 | 0.00 | 0.00 | 68 | 1015.1 |
| 20260903122212 | 78 | 191 | 3.0 | 5.0 | 0.00 | 0.00 | 0.00 | 68 | 1015.1 |
| 20260903121710 | 78 | 199 | 0.0 | 1.0 | 0.00 | 0.00 | 0.00 | 69 | 1015.0 |
| 20260903121207 | 78 | 209 | 1.0 | 2.0 | 0.00 | 0.00 | 0.00 | 68 | 1015.1 |
| 20260903120706 | 78 | 208 | 0.0 | 1.0 | 0.00 | 0.00 | 0.00 | 68 | 1015.1 |
| 20260903120200 | 78 | 207 | 0.0 | 0.0 | 0.00 | 0.00 | 0.00 | 68 | 1015.0 |
| 20260903115659 | 79 | 162 | 0.0 | 0.0 | 0.00 | 0.00 | 0.00 | 67 | 1014.8 |
| 20260903115154 | 79 | 214 | 3.0 | 3.0 | 0.00 | 0.00 | 0.00 | 67 | 1014.9 |
| 20260903114649 | 79 | 158 | 0.0 | 1.0 | 0.00 | 0.00 | 0.00 | 67 | 1014.8 |
| 20260903114144 | 79 | 219 | 1.0 | 1.0 | 0.00 | 0.00 | 0.00 | 67 | 1014.9 |
| 20260903113639 | 79 | 199 | 1.0 | 2.0 | 0.00 | 0.00 | 0.00 | 67 | 1014.7 |
| 20260903113136 | 79 | 192 | 3.0 | 3.0 | 0.00 | 0.00 | 0.00 | 67 | 1015.0 |
| 20260903112632 | 79 | 190 | 2.0 | 2.0 | 0.00 | 0.00 | 0.00 | 67 | 1014.9 |
| 20260903112126 | 78 | 215 | 3.0 | 5.0 | 0.00 | 0.00 | 0.00 | 67 | 1015.0 |
| 20260903111625 | 78 | 170 | 0.0 | 1.0 | 0.00 | 0.00 | 0.00 | 67 | 1014.9 |
| 20260903111121 | 78 | 213 | 1.0 | 1.0 | 0.00 | 0.00 | 0.00 | 67 | 1014.7 |
| 20260903110617 | 78 | 218 | 0.0 | 0.0 | 0.00 | 0.00 | 0.00 | 67 | 1014.6 |
| 20260903110112 | 79 | 189 | 2.0 | 2.0 | 0.00 | 0.00 | 0.00 | 67 | 1014.7 |
| 20260903105607 | 78 | 205 | 2.0 | 2.0 | 0.00 | 0.00 | 0.00 | 67 | 1014.7 |
| 20260903105102 | 78 | 194 | 3.0 | 5.0 | 0.00 | 0.00 | 0.00 | 68 | 1014.8 |
| 20260903104602 | 78 | 204 | 3.0 | 3.0 | 0.00 | 0.00 | 0.00 | 68 | 1015.0 |
| 20260903104057 | 78 | 211 | 0.0 | 1.0 | 0.00 | 0.00 | 0.00 | 69 | 1014.8 |
| 20260903103553 | 78 | 190 | 3.0 | 5.0 | 0.00 | 0.00 | 0.00 | 69 | 1014.9 |
| 20260903103049 | 78 | 137 | 0.0 | 1.0 | 0.00 | 0.00 | 0.00 | 69 | 1015.3 |
| 20260903102544 | 78 | 171 | 0.0 | 0.0 | 0.00 | 0.00 | 0.00 | 70 | 1015.0 |
| 20260903102043 | 78 | 145 | 1.0 | 2.0 | 0.00 | 0.00 | 0.00 | 70 | 1014.9 |
| 20260903101538 | 78 | 190 | 1.0 | 1.0 | 0.00 | 0.00 | 0.00 | 70 | 1015.1 |
| 20260903101033 | 78 | 198 | 2.0 | 2.0 | 0.00 | 0.00 | 0.00 | 69 | 1015.1 |
| 20260903100528 | 78 | 195 | 3.0 | 3.0 | 0.00 | 0.00 | 0.00 | 69 | 1015.0 |
| 20260903100027 | 78 | 248 | 4.0 | 5.0 | 0.00 | 0.00 | 0.00 | 69 | 1015.1 |
| 20260903095525 | 78 | 222 | 0.0 | 0.0 | 0.00 | 0.00 | 0.00 | 70 | 1015.1 |
| 20260903095020 | 78 | 190 | 1.0 | 1.0 | 0.00 | 0.00 | 0.00 | 69 | 1015.0 |
| 20260903094520 | 78 | 206 | 3.0 | 5.0 | 0.00 | 0.00 | 0.00 | 69 | 1015.0 |
| 20260903094016 | 78 | 158 | 4.0 | 6.0 | 0.00 | 0.00 | 0.00 | 69 | 1014.9 |
| 20260903093516 | 78 | 211 | 3.0 | 3.0 | 0.00 | 0.00 | 0.00 | 69 | 1014.9 |
| 20260903093011 | 78 | 209 | 5.0 | 6.0 | 0.00 | 0.00 | 0.00 | 69 | 1015.0 |
| 20260903092511 | 78 | 172 | 3.0 | 3.0 | 0.00 | 0.00 | 0.00 | 69 | 1015.0 |
| 20260903092010 | 78 | 192 | 4.0 | 6.0 | 0.00 | 0.00 | 0.00 | 69 | 1015.4 |
| 20260903091509 | 78 | 232 | 0.0 | 0.0 | 0.00 | 0.00 | 0.00 | 69 | 1015.4 |
| 20260903091003 | 78 | 175 | 1.0 | 1.0 | 0.00 | 0.00 | 0.00 | 69 | 1015.1 |
| 20260903090500 | 78 | 191 | 3.0 | 5.0 | 0.00 | 0.00 | 0.00 | 69 | 1015.1 |
| 20260903085957 | 79 | 192 | 2.0 | 2.0 | 0.00 | 0.00 | 0.00 | 69 | 1014.9 |
| 20260903085456 | 79 | 154 | 3.0 | 5.0 | 0.00 | 0.00 | 0.00 | 69 | 1015.3 |
| 20260903084952 | 79 | 203 | 4.0 | 5.0 | 0.00 | 0.00 | 0.00 | 68 | 1015.5 |
| 20260903084450 | 79 | 193 | 1.0 | 2.0 | 0.00 | 0.00 | 0.00 | 68 | 1015.6 |
| 20260903083945 | 79 | 190 | 2.0 | 3.0 | 0.00 | 0.00 | 0.00 | 68 | 1015.1 |
| 20260903083441 | 79 | 201 | 1.0 | 2.0 | 0.00 | 0.00 | 0.00 | 68 | 1015.1 |
| 20260903082940 | 79 | 187 | 2.0 | 3.0 | 0.00 | 0.00 | 0.00 | 68 | 1015.0 |
| 20260903082435 | 79 | 186 | 4.0 | 5.0 | 0.00 | 0.00 | 0.00 | 67 | 1015.0 |
| 20260903081930 | 79 | 196 | 1.0 | 1.0 | 0.00 | 0.00 | 0.00 | 68 | 1015.1 |
| 20260903081426 | 79 | 199 | 2.0 | 5.0 | 0.00 | 0.00 | 0.00 | 68 | 1015.3 |
| 20260903080922 | 79 | 198 | 2.0 | 3.0 | 0.00 | 0.00 | 0.00 | 67 | 1015.4 |
| 20260903080418 | 79 | 191 | 5.0 | 6.0 | 0.00 | 0.00 | 0.00 | 67 | 1015.4 |
| 20260903075913 | 80 | 194 | 3.0 | 3.0 | 0.00 | 0.00 | 0.00 | 66 | 1015.4 |
| 20260903075409 | 80 | 208 | 2.0 | 2.0 | 0.00 | 0.00 | 0.00 | 66 | 1015.0 |
| 20260903074903 | 80 | 191 | 5.0 | 6.0 | 0.00 | 0.00 | 0.00 | 65 | 1015.3 |
| 20260903074357 | 80 | 202 | 2.0 | 2.0 | 0.00 | 0.00 | 0.00 | 66 | 1015.1 |
| 20260903073852 | 80 | 200 | 5.0 | 5.0 | 0.00 | 0.00 | 0.00 | 65 | 1015.1 |
| 20260903073347 | 80 | 165 | 2.0 | 2.0 | 0.00 | 0.00 | 0.00 | 65 | 1015.3 |
| 20260903072843 | 80 | 180 | 0.0 | 1.0 | 0.00 | 0.00 | 0.00 | 66 | 1015.6 |
| 20260903072339 | 80 | 195 | 1.0 | 2.0 | 0.00 | 0.00 | 0.00 | 65 | 1015.5 |
| 20260903071836 | 80 | 208 | 2.0 | 2.0 | 0.00 | 0.00 | 0.00 | 65 | 1015.1 |
| 20260903071331 | 80 | 199 | 3.0 | 3.0 | 0.00 | 0.00 | 0.00 | 65 | 1015.1 |
| 20260903070826 | 81 | 164 | 2.0 | 2.0 | 0.00 | 0.00 | 0.00 | 65 | 1015.5 |
| 20260903070322 | 81 | 191 | 1.0 | 2.0 | 0.00 | 0.00 | 0.00 | 64 | 1015.3 |
| 20260903065816 | 81 | 202 | 1.0 | 2.0 | 0.00 | 0.00 | 0.00 | 64 | 1015.3 |
| 20260903065316 | 81 | 198 | 0.0 | 1.0 | 0.00 | 0.00 | 0.00 | 64 | 1015.1 |
| 20260903064815 | 81 | 207 | 2.0 | 2.0 | 0.00 | 0.00 | 0.00 | 63 | 1015.3 |
| 20260903064311 | 81 | 192 | 4.0 | 5.0 | 0.00 | 0.00 | 0.00 | 63 | 1015.0 |
| 20260903063807 | 81 | 169 | 1.0 | 1.0 | 0.00 | 0.00 | 0.00 | 64 | 1014.9 |
| 20260903063302 | 81 | 148 | 0.0 | 1.0 | 0.00 | 0.00 | 0.00 | 64 | 1015.0 |
| 20260903062757 | 81 | 182 | 0.0 | 1.0 | 0.00 | 0.00 | 0.00 | 64 | 1015.0 |
| 20260903062256 | 81 | 233 | 0.0 | 1.0 | 0.00 | 0.00 | 0.00 | 64 | 1015.1 |
| 20260903061753 | 81 | 198 | 1.0 | 2.0 | 0.00 | 0.00 | 0.00 | 64 | 1014.9 |
| 20260903061252 | 81 | 210 | 2.0 | 2.0 | 0.00 | 0.00 | 0.00 | 64 | 1015.1 |
| 20260903060748 | 81 | 151 | 2.0 | 3.0 | 0.00 | 0.00 | 0.00 | 64 | 1014.9 |
| 20260903060247 | 81 | 173 | 0.0 | 0.0 | 0.00 | 0.00 | 0.00 | 63 | 1015.1 |
| 20260903055745 | 81 | 174 | 1.0 | 2.0 | 0.00 | 0.00 | 0.00 | 63 | 1014.8 |
| 20260903055243 | 81 | 180 | 2.0 | 2.0 | 0.00 | 0.00 | 0.00 | 63 | 1015.1 |
| 20260903054739 | 82 | 186 | 2.0 | 2.0 | 0.00 | 0.00 | 0.00 | 62 | 1015.0 |
| 20260903054234 | 82 | 208 | 1.0 | 2.0 | 0.00 | 0.00 | 0.00 | 62 | 1015.1 |
| 20260903053730 | 82 | 192 | 3.0 | 5.0 | 0.00 | 0.00 | 0.00 | 61 | 1015.4 |
| 20260903053225 | 82 | 183 | 2.0 | 2.0 | 0.00 | 0.00 | 0.00 | 61 | 1015.4 |
| 20260903052720 | 82 | 178 | 3.0 | 5.0 | 0.00 | 0.00 | 0.00 | 60 | 1015.5 |
| 20260903052216 | 82 | 219 | 5.0 | 6.0 | 0.00 | 0.00 | 0.00 | 59 | 1015.6 |
| 20260903051711 | 83 | 205 | 5.0 | 6.0 | 0.00 | 0.00 | 0.00 | 59 | 1015.5 |
| 20260903051206 | 83 | 198 | 4.0 | 6.0 | 0.00 | 0.00 | 0.00 | 57 | 1015.4 |
| 20260903050702 | 83 | 205 | 4.0 | 5.0 | 0.00 | 0.00 | 0.00 | 56 | 1015.4 |
| 20260903050201 | 84 | 261 | 4.0 | 5.0 | 0.00 | 0.00 | 0.00 | 55 | 1015.4 |
| 20260903045655 | 84 | 229 | 5.0 | 6.0 | 0.00 | 0.00 | 0.00 | 53 | 1015.3 |
| 20260903045152 | 84 | 208 | 3.0 | 3.0 | 0.00 | 0.00 | 0.00 | 53 | 1015.1 |
| 20260903044648 | 84 | 196 | 0.0 | 0.0 | 0.00 | 0.00 | 0.00 | 54 | 1015.3 |
| 20260903044143 | 84 | 207 | 2.0 | 2.0 | 0.00 | 0.00 | 0.00 | 53 | 1015.3 |
| 20260903043641 | 84 | 208 | 1.0 | 1.0 | 0.00 | 0.00 | 0.00 | 53 | 1015.3 |
| 20260903043139 | 84 | 200 | 5.0 | 5.0 | 0.00 | 0.00 | 0.00 | 53 | 1015.4 |
| 20260903042638 | 84 | 195 | 0.0 | 0.0 | 0.00 | 0.00 | 0.00 | 54 | 1015.1 |
| 20260903042133 | 84 | 201 | 0.0 | 0.0 | 0.00 | 0.00 | 0.00 | 54 | 1015.0 |
| 20260903041630 | 84 | 193 | 1.0 | 1.0 | 0.00 | 0.00 | 0.00 | 54 | 1015.0 |
| 20260903041126 | 84 | 198 | 0.0 | 1.0 | 0.00 | 0.00 | 0.00 | 54 | 1014.9 |
| 20260903040625 | 84 | 190 | 2.0 | 2.0 | 0.00 | 0.00 | 0.00 | 54 | 1014.8 |
| 20260903040121 | 84 | 204 | 0.0 | 0.0 | 0.00 | 0.00 | 0.00 | 54 | 1015.0 |
| 20260903035616 | 84 | 204 | 0.0 | 1.0 | 0.00 | 0.00 | 0.00 | 54 | 1014.8 |
| 20260903035112 | 84 | 211 | 0.0 | 0.0 | 0.00 | 0.00 | 0.00 | 54 | 1015.0 |
| 20260903034607 | 84 | 202 | 2.0 | 2.0 | 0.00 | 0.00 | 0.00 | 54 | 1014.8 |
| 20260903034102 | 84 | 187 | 1.0 | 1.0 | 0.00 | 0.00 | 0.00 | 54 | 1015.0 |
| 20260903033557 | 84 | 193 | 1.0 | 2.0 | 0.00 | 0.00 | 0.00 | 53 | 1015.0 |
| 20260903033052 | 84 | 213 | 1.0 | 1.0 | 0.00 | 0.00 | 0.00 | 52 | 1014.9 |
| 20260903032547 | 84 | 203 | 2.0 | 3.0 | 0.00 | 0.00 | 0.00 | 52 | 1014.7 |
| 20260903032043 | 85 | 203 | 2.0 | 3.0 | 0.00 | 0.00 | 0.00 | 52 | 1014.6 |
| 20260903031542 | 85 | 189 | 3.0 | 3.0 | 0.00 | 0.00 | 0.00 | 51 | 1014.3 |
| 20260903031037 | 84 | 192 | 3.0 | 3.0 | 0.00 | 0.00 | 0.00 | 51 | 1014.4 |
| 20260903030533 | 84 | 184 | 0.0 | 0.0 | 0.00 | 0.00 | 0.00 | 52 | 1014.2 |
| 20260903030029 | 84 | 176 | 1.0 | 1.0 | 0.00 | 0.00 | 0.00 | 51 | 1014.2 |
| 20260903025524 | 84 | 163 | 1.0 | 2.0 | 0.00 | 0.00 | 0.00 | 52 | 1014.5 |
| 20260903025020 | 84 | 179 | 0.0 | 0.0 | 0.00 | 0.00 | 0.00 | 52 | 1014.4 |
| 20260903024519 | 84 | 145 | 0.0 | 1.0 | 0.00 | 0.00 | 0.00 | 53 | 1014.1 |
| 20260903024014 | 84 | 183 | 0.0 | 1.0 | 0.00 | 0.00 | 0.00 | 52 | 1014.0 |
| 20260903023509 | 85 | 200 | 2.0 | 2.0 | 0.00 | 0.00 | 0.00 | 51 | 1014.1 |
| 20260903023004 | 85 | 186 | 0.0 | 0.0 | 0.00 | 0.00 | 0.00 | 51 | 1014.1 |